Columbia Falls, MT

11:43 AM MST on March 06, 2015 (GMT -0700)
Blankenship | Change Station
CLOSE
Current Station
Personal Weather Station
Location: Columbia Falls, MT
Elevation: 3218 ft
Nearby Weather Stations

Elev 3218 ft 48.47 °N, 114.11 °W | Updated 3 minutes ago

Clear
Clear
49.2 °F
Feels Like 49 °F
N
0.0
Wind Variable Wind from NE
Gusts 0.0 mph

Today
High -- | Low -- °F
--% Chance of Precip.
Yesterday
High -- | Low -- °F
Precip. -- in
7:08 AM 6:27 PM
Full, 99% visible
Pressure 30.16 in
Visibility 10.0 miles
Clouds Clear
Windchill 49 °F
Dew Point 29 °F
Humidity 45%
Rainfall in
Snow Depth Not available.
UV 3 out of 12
Pollen .70 out of 12
Air Quality Not available.
Flu Activity Not available.
METAR KCTB 061756Z AUTO 26022G32KT 10SM CLR 09/M06 A3013 RMK AO2 PK WND 25035/1737 SLP213 T00891061 10089 20028 51019

More Conditions Fewer Conditions

Pressure 30.16 in
Visibility 10.0 miles
Clouds Clear
Windchill 49 °F
Dew Point 29 °F
Humidity 45%
Rainfall in
Snow Depth Not available.
UV 3 out of 12
Pollen .70 out of 12
Air Quality Not available.
Flu Activity Not available.
METAR KCTB 061756Z AUTO 26022G32KT 10SM CLR 09/M06 A3013 RMK AO2 PK WND 25035/1737 SLP213 T00891061 10089 20028 51019

More Conditions Fewer Conditions

10-Day Weather Forecast

Almanac

Astronomy

Mar. 06, 2015 Rise Set
Actual Time
Civil Twilight
Nautical Twilight
Astronomical Twilight
Moon
Length of Visible Light
Length of Day
Tomorrow will be .
, % of the Moon is Illuminated

Today's Extremes

State Highs State Lows

Community

WunderPhotos

Upload Photos

1,803,367 photos uploaded!

WunderBlogs® & News

Nearby

Air Quality

  Air Quality AQ Index Pollutant
Not available.

Snow Depth

Station Depth Elevation

Earthquake Activity

City Distance Mag. Time & Date
Minimum magnitude displayed is 2.5.

Coastal Water Temperatures

Place Temperature

Nearby Weather Stations